createdAt,value
2023-02-15T00:02:43.693Z,22.45
2023-02-15T00:05:23.750Z,21.65
2023-02-15T00:08:17.690Z,22.60
2023-02-15T00:11:22.670Z,21.77
2023-02-15T00:13:55.771Z,22.85
2023-02-15T00:16:43.729Z,22.08
2023-02-15T00:19:18.815Z,22.05
2023-02-15T00:22:05.672Z,23.33
2023-02-15T00:24:39.770Z,21.20
2023-02-15T00:27:26.685Z,22.17
2023-02-15T00:29:59.785Z,22.10
2023-02-15T00:32:46.677Z,23.08
2023-02-15T00:35:19.786Z,24.95
2023-02-15T00:38:06.666Z,22.27
2023-02-15T00:40:39.803Z,22.73
2023-02-15T00:43:26.684Z,23.00
2023-02-15T00:46:00.070Z,21.90
2023-02-15T00:48:46.694Z,22.48
2023-02-15T00:51:19.797Z,23.45
2023-02-15T00:54:06.724Z,24.00
2023-02-15T00:57:00.689Z,23.63
2023-02-15T00:59:47.710Z,24.73
2023-02-15T01:02:20.792Z,22.63
2023-02-15T01:05:07.709Z,22.75
2023-02-15T01:07:47.716Z,23.13
2023-02-15T01:10:42.680Z,24.15
2023-02-15T01:13:36.708Z,23.27
2023-02-15T01:16:23.806Z,23.95
2023-02-15T01:19:03.790Z,23.42
2023-02-15T01:21:57.717Z,22.83
2023-02-15T01:24:44.712Z,24.30
2023-02-15T01:27:17.807Z,26.15
2023-02-15T01:30:04.710Z,24.48
2023-02-15T01:32:38.809Z,23.70
2023-02-15T01:35:25.701Z,24.77
2023-02-15T01:37:58.888Z,24.52
2023-02-15T01:40:46.714Z,26.48
2023-02-15T01:43:19.812Z,25.00
2023-02-15T01:46:06.758Z,25.00
2023-02-15T01:48:46.658Z,25.20
2023-02-15T01:51:36.738Z,25.67
2023-02-15T01:54:25.884Z,26.60
2023-02-15T01:57:17.719Z,25.83
2023-02-15T01:59:54.809Z,25.45
2023-02-15T02:02:41.767Z,23.60
2023-02-15T02:05:21.760Z,24.65
2023-02-15T02:08:19.709Z,25.13
2023-02-15T02:11:06.725Z,24.98
2023-02-15T02:13:39.829Z,24.08
2023-02-15T02:16:34.733Z,24.67
2023-02-15T02:19:36.715Z,23.75
2023-02-15T02:23:03.743Z,26.02
2023-02-15T02:26:09.722Z,26.75
2023-02-15T02:29:51.797Z,25.00
2023-02-15T02:36:03.969Z,24.88
2023-02-15T02:39:13.739Z,25.73
2023-02-15T02:42:53.751Z,25.08
2023-02-15T02:45:50.747Z,24.23
2023-02-15T02:48:29.827Z,23.67
2023-02-15T02:51:16.722Z,26.33
2023-02-15T02:53:56.710Z,25.60
2023-02-15T02:56:57.765Z,26.20
2023-02-15T02:59:58.720Z,22.95
2023-02-15T03:02:50.802Z,25.15
2023-02-15T03:05:28.876Z,26.50
2023-02-15T03:08:17.748Z,25.25
2023-02-15T03:10:51.832Z,25.65
2023-02-15T03:13:39.732Z,27.17
2023-02-15T03:16:27.047Z,26.00
2023-02-15T03:19:17.732Z,25.90
2023-02-15T03:22:10.196Z,26.20
2023-02-15T03:25:37.747Z,25.55
2023-02-15T03:28:22.764Z,25.35
2023-02-15T03:31:19.837Z,26.85
2023-02-15T03:34:11.786Z,29.23
2023-02-15T03:37:03.779Z,25.80
2023-02-15T03:40:28.745Z,26.48
2023-02-15T03:43:29.748Z,26.15
2023-02-15T03:46:35.776Z,25.83
2023-02-15T03:49:32.761Z,25.10
2023-02-15T03:52:07.837Z,24.40
2023-02-15T03:55:02.768Z,25.63
2023-02-15T03:58:08.750Z,27.20
2023-02-15T04:01:09.806Z,26.00
2023-02-15T04:04:10.781Z,27.58
2023-02-15T04:07:04.766Z,27.02
2023-02-15T04:10:09.803Z,24.45
2023-02-15T04:12:42.858Z,25.33
2023-02-15T04:15:48.770Z,26.35
2023-02-15T04:18:21.957Z,25.48
2023-02-15T04:21:26.776Z,27.63
2023-02-15T04:24:18.555Z,23.60
2023-02-15T04:27:05.767Z,24.23
2023-02-15T04:29:39.883Z,24.38
2023-02-15T04:32:26.757Z,25.02
2023-02-15T04:34:59.864Z,25.35
2023-02-15T04:37:47.758Z,26.48
2023-02-15T04:40:22.878Z,26.38
2023-02-15T04:43:09.800Z,25.02
2023-02-15T04:45:49.830Z,25.60
2023-02-15T04:48:36.765Z,26.60
2023-02-15T04:51:20.788Z,24.65
2023-02-15T04:54:14.796Z,24.58
2023-02-15T04:57:08.789Z,24.60
2023-02-15T05:00:02.787Z,24.05
2023-02-15T05:02:49.777Z,24.88
2023-02-15T05:05:23.882Z,24.58
2023-02-15T05:08:10.798Z,26.55
2023-02-15T05:10:43.835Z,22.30
2023-02-15T05:13:31.783Z,24.30
2023-02-15T05:16:11.787Z,23.70
2023-02-15T05:19:05.786Z,22.80
2023-02-15T05:21:59.830Z,22.70
2023-02-15T05:25:04.788Z,24.48
2023-02-15T05:28:04.960Z,23.65
2023-02-15T05:30:51.934Z,24.75
2023-02-15T05:33:32.805Z,21.77
2023-02-15T05:36:26.770Z,23.67
2023-02-15T05:39:15.800Z,23.45
2023-02-15T05:41:48.896Z,24.58
2023-02-15T05:44:35.835Z,21.67
2023-02-15T05:47:08.938Z,24.17
2023-02-15T05:49:55.785Z,25.70
2023-02-15T05:52:28.928Z,24.77
2023-02-15T05:55:22.792Z,22.80
2023-02-15T05:58:09.803Z,22.33
2023-02-15T06:00:42.893Z,21.75
2023-02-15T06:03:31.040Z,23.85
2023-02-15T06:06:11.801Z,20.65
2023-02-15T06:08:58.801Z,21.27
2023-02-15T06:11:31.922Z,20.45
2023-02-15T06:14:18.806Z,22.00
2023-02-15T06:16:52.394Z,21.50
2023-02-15T06:19:38.800Z,21.20
2023-02-15T06:22:15.014Z,21.27
2023-02-15T06:25:01.813Z,20.35
2023-02-15T06:27:41.812Z,21.95
2023-02-15T06:30:35.810Z,22.92
2023-02-15T06:33:22.812Z,21.70
2023-02-15T06:35:55.922Z,21.67
2023-02-15T06:38:42.827Z,22.70
2023-02-15T06:41:15.901Z,21.00
2023-02-15T06:44:02.842Z,19.33
2023-02-15T06:46:42.849Z,21.92
2023-02-15T06:49:36.840Z,22.55
2023-02-15T06:52:23.815Z,21.08
2023-02-15T06:55:03.812Z,22.40
2023-02-15T06:57:57.831Z,20.67
2023-02-15T07:00:44.820Z,22.30
2023-02-15T07:03:20.955Z,21.85
2023-02-15T07:06:10.821Z,21.65
2023-02-15T07:08:52.834Z,21.23
2023-02-15T07:11:58.849Z,21.75
2023-02-15T07:14:31.950Z,21.25
2023-02-15T07:17:35.020Z,20.48
2023-02-15T07:20:21.832Z,23.08
2023-02-15T07:23:15.846Z,20.73
2023-02-15T07:26:13.838Z,23.40
2023-02-15T07:29:07.853Z,21.45
2023-02-15T07:32:01.898Z,19.05
2023-02-15T07:34:48.787Z,22.10
2023-02-15T07:37:21.951Z,21.10
2023-02-15T07:40:08.830Z,18.23
2023-02-15T07:42:41.948Z,19.98
2023-02-15T07:45:28.853Z,18.90
2023-02-15T07:48:01.971Z,18.08
2023-02-15T07:50:48.836Z,18.38
2023-02-15T07:53:21.932Z,19.42
2023-02-15T07:56:17.839Z,18.92
2023-02-15T07:59:12.824Z,19.10
2023-02-15T08:02:06.851Z,19.38
2023-02-15T08:05:00.846Z,20.15
2023-02-15T08:07:54.841Z,17.95
2023-02-15T08:11:15.854Z,19.35
2023-02-15T08:13:57.150Z,19.13
2023-02-15T08:16:46.883Z,19.75
2023-02-15T08:19:25.935Z,19.90
2023-02-15T08:22:14.861Z,18.35
2023-02-15T08:24:47.950Z,18.83
2023-02-15T08:27:34.865Z,19.55
2023-02-15T08:30:08.018Z,18.67
2023-02-15T08:32:55.505Z,18.88
2023-02-15T08:35:28.959Z,20.30
2023-02-15T08:38:15.845Z,19.70
2023-02-15T08:40:48.963Z,20.90
2023-02-15T08:43:35.854Z,19.05
2023-02-15T08:46:09.019Z,20.08
2023-02-15T08:48:55.849Z,18.98
2023-02-15T08:51:34.971Z,19.90
2023-02-15T08:54:24.878Z,24.05
2023-02-15T08:57:04.963Z,19.52
2023-02-15T08:59:58.871Z,21.08
2023-02-15T09:02:45.871Z,19.80
2023-02-15T09:05:18.968Z,18.92
2023-02-15T09:08:05.890Z,19.88
2023-02-15T09:10:38.955Z,19.73
2023-02-15T09:13:25.965Z,18.90
2023-02-15T09:16:07.013Z,19.45
2023-02-15T09:18:54.874Z,21.67
2023-02-15T09:21:38.876Z,20.00
2023-02-15T09:24:25.859Z,22.50
2023-02-15T09:26:58.969Z,22.77
2023-02-15T09:29:45.865Z,23.23
2023-02-15T09:32:23.067Z,21.75
2023-02-15T09:35:09.880Z,21.05
2023-02-15T09:37:42.955Z,21.52
2023-02-15T09:40:29.884Z,20.58
2023-02-15T09:43:02.964Z,19.85
2023-02-15T09:46:04.919Z,21.42
2023-02-15T09:48:55.876Z,19.08
2023-02-15T09:52:29.894Z,19.83
2023-02-15T09:55:33.874Z,20.40
2023-02-15T09:58:22.902Z,20.42
2023-02-15T10:01:08.951Z,20.08
2023-02-15T10:04:08.909Z,20.70
2023-02-15T10:07:22.900Z,22.08
2023-02-15T10:10:15.878Z,20.73
2023-02-15T10:13:37.901Z,20.35
2023-02-15T10:16:42.917Z,22.73
2023-02-15T10:19:19.045Z,20.77
2023-02-15T10:22:38.882Z,20.65
2023-02-15T10:25:15.036Z,18.42
2023-02-15T10:28:01.897Z,20.52
2023-02-15T10:31:01.457Z,21.15
2023-02-15T10:33:50.906Z,21.25
2023-02-15T10:36:42.896Z,20.10
2023-02-15T10:39:41.913Z,21.88
2023-02-15T10:42:49.882Z,22.88
2023-02-15T10:45:32.000Z,17.42
2023-02-15T10:48:38.895Z,19.55
2023-02-15T10:51:20.015Z,20.55
2023-02-15T10:54:35.905Z,18.85
2023-02-15T10:57:30.918Z,21.00
2023-02-15T11:00:41.907Z,22.60
2023-02-15T11:03:47.918Z,23.48
2023-02-15T11:06:25.016Z,19.40
2023-02-15T11:09:18.895Z,20.92
2023-02-15T11:12:00.608Z,19.20
2023-02-15T11:15:03.898Z,20.10
2023-02-15T11:17:55.937Z,17.30
2023-02-15T11:20:58.919Z,20.02
2023-02-15T11:23:57.923Z,18.98
2023-02-15T11:27:07.960Z,20.55
2023-02-15T11:29:57.939Z,17.40
2023-02-15T11:32:53.964Z,18.73
2023-02-15T11:35:56.938Z,21.27
2023-02-15T11:38:46.931Z,17.42
2023-02-15T11:41:35.915Z,17.60
2023-02-15T11:44:40.937Z,19.15
2023-02-15T11:47:42.912Z,18.60
2023-02-15T11:50:34.938Z,18.75
2023-02-15T11:53:17.094Z,16.73
2023-02-15T11:56:03.952Z,18.65
2023-02-15T11:58:49.042Z,17.45
2023-02-15T12:01:38.939Z,16.02
2023-02-15T12:04:22.546Z,17.52
2023-02-15T12:07:14.942Z,16.83
2023-02-15T12:10:27.954Z,16.58
2023-02-15T12:13:33.942Z,18.33
2023-02-15T12:16:20.947Z,20.42
2023-02-15T12:19:01.967Z,19.00
2023-02-15T12:21:55.953Z,19.75
2023-02-15T12:24:45.938Z,21.58
2023-02-15T12:27:38.160Z,21.15
2023-02-15T12:30:35.968Z,21.02
2023-02-15T12:33:43.949Z,19.88
2023-02-15T12:36:38.944Z,19.23
2023-02-15T12:39:15.036Z,20.35
2023-02-15T12:42:01.997Z,19.15
2023-02-15T12:44:43.040Z,19.58
2023-02-15T12:47:30.973Z,20.65
2023-02-15T12:50:23.044Z,21.63
2023-02-15T12:53:30.964Z,19.48
2023-02-15T12:56:13.149Z,21.50
2023-02-15T12:59:12.955Z,20.52
2023-02-15T13:01:46.992Z,21.48
2023-02-15T13:04:35.943Z,20.55
2023-02-15T13:07:10.068Z,20.77
2023-02-15T13:09:57.982Z,20.98
2023-02-15T13:12:34.655Z,18.30
2023-02-15T13:15:33.973Z,18.17
2023-02-15T13:18:09.094Z,22.73
2023-02-15T13:20:56.973Z,21.77
2023-02-15T13:23:38.043Z,20.23
2023-02-15T13:26:28.980Z,21.25
2023-02-15T13:29:09.532Z,20.90
2023-02-15T13:31:57.076Z,21.25
2023-02-15T13:34:39.632Z,20.83
2023-02-15T13:37:31.967Z,20.33
2023-02-15T13:40:16.136Z,22.88
2023-02-15T13:43:09.973Z,22.50
2023-02-15T13:46:00.258Z,22.73
2023-02-15T13:49:24.981Z,21.85
2023-02-15T13:52:31.988Z,20.58
2023-02-15T13:55:28.121Z,18.92
2023-02-15T13:58:51.990Z,18.80
2023-02-15T14:01:58.119Z,19.27
2023-02-15T14:04:53.181Z,20.63
2023-02-15T14:07:45.992Z,19.38
2023-02-15T14:10:58.985Z,20.63
2023-02-15T14:13:50.162Z,20.63
2023-02-15T14:17:05.448Z,22.05
2023-02-15T14:20:02.165Z,20.08
2023-02-15T14:23:12.977Z,18.85
2023-02-15T14:26:00.005Z,17.38
2023-02-15T14:29:28.982Z,21.23
2023-02-15T14:32:19.071Z,21.48
2023-02-15T14:35:19.022Z,22.27
2023-02-15T14:38:11.006Z,23.35
2023-02-15T14:41:12.296Z,22.98
2023-02-15T14:44:16.965Z,23.73
2023-02-15T14:46:58.165Z,22.95
2023-02-15T14:49:46.978Z,22.10
2023-02-15T14:52:28.632Z,23.75
2023-02-15T14:55:21.994Z,23.00
2023-02-15T14:58:16.037Z,21.50
2023-02-15T15:01:27.018Z,21.73
2023-02-15T15:04:22.010Z,24.35
2023-02-15T15:07:14.004Z,22.30
2023-02-15T15:10:23.991Z,20.38
2023-02-15T15:13:45.017Z,24.35
2023-02-15T15:16:38.238Z,24.52
2023-02-15T15:20:00.048Z,23.33
2023-02-15T15:22:38.218Z,28.70
2023-02-15T15:25:41.015Z,26.33
2023-02-15T15:28:14.112Z,27.10
2023-02-15T15:31:02.136Z,26.20
2023-02-15T15:33:57.030Z,27.30
2023-02-15T15:36:51.028Z,25.63
2023-02-15T15:39:59.010Z,24.83
2023-02-15T15:42:58.995Z,25.58
2023-02-15T15:46:02.316Z,24.40
2023-02-15T15:48:56.009Z,23.70
2023-02-15T15:51:48.016Z,25.70
2023-02-15T15:54:27.181Z,27.15
2023-02-15T15:57:24.031Z,26.80
2023-02-15T16:00:00.622Z,25.30
2023-02-15T16:03:00.071Z,24.85
2023-02-15T16:05:33.392Z,24.33
2023-02-15T16:08:20.040Z,24.63
2023-02-15T16:10:53.124Z,25.30
2023-02-15T16:13:41.017Z,23.98
2023-02-15T16:16:14.195Z,23.70
2023-02-15T16:19:03.035Z,24.70
2023-02-15T16:21:40.154Z,25.75
2023-02-15T16:24:36.063Z,25.50
2023-02-15T16:27:34.124Z,28.77
2023-02-15T16:30:35.154Z,26.73
2023-02-15T16:33:28.036Z,24.92
2023-02-15T16:36:36.074Z,23.45
2023-02-15T16:39:31.026Z,23.85
2023-02-15T16:42:28.042Z,23.23
2023-02-15T16:45:29.038Z,23.08
2023-02-15T16:48:36.047Z,23.90
2023-02-15T16:51:16.040Z,24.30
2023-02-15T16:54:12.050Z,22.33
2023-02-15T16:57:06.043Z,23.52
2023-02-15T17:00:04.067Z,25.30
2023-02-15T17:03:06.087Z,23.10
2023-02-15T17:05:54.186Z,22.83
2023-02-15T17:08:50.075Z,22.13
2023-02-15T17:11:27.166Z,24.58
2023-02-15T17:14:17.065Z,23.77
2023-02-15T17:17:00.072Z,24.58
2023-02-15T17:20:01.110Z,25.13
2023-02-15T17:22:34.162Z,24.13
2023-02-15T17:25:32.049Z,25.08
2023-02-15T17:28:05.223Z,25.83
2023-02-15T17:30:54.051Z,24.98
2023-02-15T17:33:41.044Z,24.50
2023-02-15T17:36:30.056Z,26.20
2023-02-15T17:39:10.477Z,26.08
2023-02-15T17:42:00.104Z,25.95
2023-02-15T17:44:33.169Z,25.58
2023-02-15T17:47:30.139Z,24.55
2023-02-15T17:50:03.171Z,27.50
2023-02-15T17:52:50.068Z,25.63
2023-02-15T17:55:35.506Z,27.83
2023-02-15T17:58:26.060Z,27.88
2023-02-15T18:01:23.825Z,28.23
2023-02-15T18:04:29.113Z,26.80
2023-02-15T18:07:27.118Z,26.80
2023-02-15T18:10:44.108Z,25.08
2023-02-15T18:13:24.103Z,25.50
2023-02-15T18:16:18.101Z,25.50
2023-02-15T18:19:05.086Z,27.13
2023-02-15T18:21:47.105Z,26.83
2023-02-15T18:24:41.117Z,26.25
2023-02-15T18:27:28.108Z,26.17
2023-02-15T18:30:08.114Z,27.60
2023-02-15T18:32:58.126Z,27.65
2023-02-15T18:35:35.276Z,26.23
2023-02-15T18:38:22.072Z,27.55
2023-02-15T18:40:55.257Z,29.05
2023-02-15T18:43:42.078Z,27.90
2023-02-15T18:46:22.192Z,26.27
2023-02-15T18:49:09.114Z,28.05
2023-02-15T18:51:43.393Z,30.17
2023-02-15T18:54:32.103Z,28.35
2023-02-15T18:57:16.114Z,27.55
2023-02-15T19:00:03.087Z,30.38
2023-02-15T19:02:43.183Z,30.17
2023-02-15T19:05:38.118Z,32.35
2023-02-15T19:08:36.087Z,29.50
2023-02-15T19:11:28.476Z,30.42
2023-02-15T19:14:02.201Z,30.52
2023-02-15T19:16:49.135Z,30.63
2023-02-15T19:19:22.212Z,31.02
2023-02-15T19:22:09.100Z,35.63
2023-02-15T19:24:48.240Z,36.92
2023-02-15T19:27:42.108Z,34.97
2023-02-15T19:30:23.278Z,38.55
2023-02-15T19:33:12.106Z,37.70
2023-02-15T19:35:53.109Z,38.13
2023-02-15T19:38:48.104Z,38.78
2023-02-15T19:41:46.217Z,39.83
2023-02-15T19:44:33.236Z,44.90
2023-02-15T19:47:13.130Z,41.15
2023-02-15T19:50:10.093Z,39.70
2023-02-15T19:52:57.112Z,38.58
2023-02-15T19:55:45.092Z,41.08
2023-02-15T19:58:40.218Z,37.05
2023-02-15T20:01:34.113Z,35.13
2023-02-15T20:04:28.188Z,39.33
2023-02-15T20:07:28.158Z,37.15
2023-02-15T20:10:08.128Z,36.95
2023-02-15T20:12:55.120Z,49.38
2023-02-15T20:15:32.327Z,52.17
2023-02-15T20:18:21.870Z,50.45
2023-02-15T20:21:08.145Z,45.65
2023-02-15T20:23:55.147Z,42.45
2023-02-15T20:26:31.419Z,44.00
2023-02-15T20:29:21.131Z,42.15
2023-02-15T20:31:55.595Z,33.67
2023-02-15T20:34:42.117Z,34.13
2023-02-15T20:37:33.974Z,35.75
2023-02-15T20:40:24.106Z,46.97
2023-02-15T20:42:57.281Z,46.33
2023-02-15T20:45:44.121Z,48.45
2023-02-15T20:48:17.217Z,47.55
2023-02-15T20:51:07.211Z,50.58
2023-02-15T20:53:40.302Z,44.95
2023-02-15T20:56:31.332Z,39.05
2023-02-15T20:59:45.145Z,35.25
2023-02-15T21:02:39.191Z,34.30
2023-02-15T21:05:32.139Z,37.45
2023-02-15T21:08:06.269Z,39.30
2023-02-15T21:10:55.157Z,38.13
2023-02-15T21:13:43.123Z,37.45
2023-02-15T21:16:30.211Z,32.50
2023-02-15T21:19:03.252Z,33.15
2023-02-15T21:21:52.227Z,33.55
2023-02-15T21:24:34.432Z,35.55
2023-02-15T21:27:22.129Z,42.78
2023-02-15T21:29:55.298Z,42.63
2023-02-15T21:32:42.162Z,43.35
2023-02-15T21:35:18.325Z,38.85
2023-02-15T21:38:05.139Z,42.13
2023-02-15T21:40:39.236Z,43.65
2023-02-15T21:43:49.148Z,44.70
2023-02-15T21:46:50.173Z,47.40
2023-02-15T21:49:44.190Z,40.03
2023-02-15T21:52:31.136Z,33.45
2023-02-15T21:55:04.528Z,33.45
2023-02-15T21:57:59.208Z,31.27
2023-02-15T22:00:53.163Z,33.97
2023-02-15T22:03:42.172Z,35.70
2023-02-15T22:06:19.234Z,36.75
2023-02-15T22:09:06.150Z,33.45
2023-02-15T22:11:46.138Z,32.10
2023-02-15T22:14:54.160Z,33.38
2023-02-15T22:17:42.138Z,31.55
2023-02-15T22:20:32.174Z,34.70
2023-02-15T22:23:26.143Z,35.25
2023-02-15T22:26:18.140Z,36.30
2023-02-15T22:28:51.294Z,36.22
2023-02-15T22:31:38.215Z,38.33
2023-02-15T22:34:11.262Z,37.72
2023-02-15T22:36:58.164Z,37.03
2023-02-15T22:39:32.238Z,36.70
2023-02-15T22:42:34.189Z,36.15
2023-02-15T22:45:08.238Z,35.47
2023-02-15T22:47:59.154Z,35.20
2023-02-15T22:50:42.167Z,36.05
2023-02-15T22:53:29.177Z,33.85
2023-02-15T22:56:03.290Z,34.28
2023-02-15T22:58:57.158Z,34.33
2023-02-15T23:01:52.164Z,32.85
2023-02-15T23:04:46.152Z,31.88
2023-02-15T23:07:41.168Z,33.00
2023-02-15T23:10:37.174Z,29.58
2023-02-15T23:13:31.035Z,30.15
2023-02-15T23:16:07.272Z,29.25
2023-02-15T23:18:54.192Z,28.40
2023-02-15T23:21:33.279Z,29.58
2023-02-15T23:24:33.172Z,30.25
2023-02-15T23:27:31.197Z,29.58
2023-02-15T23:30:28.238Z,32.70
2023-02-15T23:33:18.193Z,28.77
2023-02-15T23:35:51.279Z,28.77
2023-02-15T23:38:39.193Z,28.90
2023-02-15T23:41:20.485Z,31.65
2023-02-15T23:44:10.183Z,31.25
2023-02-15T23:46:48.303Z,30.33
2023-02-15T23:49:35.177Z,30.13
2023-02-15T23:52:08.277Z,30.13
2023-02-15T23:54:55.202Z,31.20
2023-02-15T23:57:28.320Z,29.10
